AirNav   Duncan Aviation - Near you to keep you flying
 
 1076 users online  

9CL9 Spezia Airport
Walnut Grove, California, USA

GOING TO WALNUT GROVE?


FAA INFORMATION EFFECTIVE 04 NOVEMBER 2021

Location

FAA Identifier: 9CL9
Lat/Long: 38-12-59.6960N 121-32-03.8300W
38-12.994933N 121-32.063833W
38.2165822,-121.5343972
(estimated)
Elevation: 0 ft. / 0 m (estimated)
Variation: 16E (1985)
From city: 3 miles SW of WALNUT GROVE, CA
Time zone: UTC -7 (UTC -8 during Standard Time)
Zip code: 95690

Airport Operations

Airport use: Private use. Permission required prior to landing
Activation date: 04/1949
Control tower: no
ARTCC: OAKLAND CENTER
FSS: RANCHO MURIETA FLIGHT SERVICE STATION
Attendance: IREG
Pattern altitude: 800 ft. MSL
Wind indicator: yes
Segmented circle: no

Airport Communications

WX AWOS-AV at O88 (8 nm W): 127.075 (707-374-5396)
WX ASOS at SAC (18 nm N): PHONE 916-421-0923

Nearby radio navigation aids

VOR radial/distance  VOR name  Freq  Var
SACr160/13.7SACRAMENTO VORTAC115.2017E
CCRr050/26.2CONCORD VOR/DME117.0017E
LINr272/26.4LINDEN VOR/DME114.8017E
MCCr176/27.7MC CLELLAN VOR/DME109.2017E
SGDr070/39.6SCAGGS ISLAND VORTAC112.1017E

Airport Services

Parking: hangars
Airframe service: NONE
Powerplant service: NONE
Bottled oxygen: NONE
Bulk oxygen: NONE

Runway Information

Runway 7/25

Dimensions: 2500 x 100 ft. / 762 x 30 m
Surface: dirt
RUNWAY 7  RUNWAY 25
Traffic pattern: leftleft
Runway end identifier lights: nono
Obstructions: pline, 1700 ft. from runwaybldg

Airport Ownership and Management from official FAA records

Ownership: Privately-owned
Owner: ALEXANDER AG FLYING SVC INC
BOX 608
RIO VISTA, CA 94571
Phone 916-776-1579
Manager: VICTOR D. SPEZIA
BOX 67
WALNUT GROVE, CA 95690
Phone 916-776-1579

Airport Operational Statistics

Aircraft based on the field: 4
Single engine airplanes: 4
    

Additional Remarks

E98 6 SHADE HANGARS.
FOR CD CTC NORCAL APCH AT 916-361-6874.

Instrument Procedures

There are no published instrument procedures at 9CL9.

Some nearby airports with instrument procedures:

O88 - Rio Vista Municipal Airport (8 nm W)
1O3 - Lodi Airport (13 nm E)
KSAC - Sacramento Executive Airport (18 nm N)
KSUU - Travis Air Force Base (19 nm W)
KEDU - University Airport (22 nm NW)
 
Loc | Ops | Rwys | IFR | FBO | Links
Com | Nav | Svcs | Stats | Notes
Area around 9CL9 (Spezia Airport)
 
Road maps at: MapQuest Bing Google
 
Aerial photo
WARNING: Photo may not be current or correct
Aerial photo of 9CL9 (Spezia Airport)
Photo by Tom Neale
Photo taken 09-Apr-2017
looking west.

Do you have a better or more recent aerial photo of Spezia Airport that you would like to share? If so, please send us your photo.

 
Sectional chart

 
Airport distance calculator
Flying to Spezia Airport? Find the distance to fly.

From to 9CL9

Sunrise and sunset
Times for 30-Nov-2021
 Local
(UTC-8)
 Zulu
(UTC)
Morning civil twilight06:3514:35
Sunrise07:0415:04
Sunset16:4600:46
Evening civil twilight17:1501:15

Current date and time
Zulu (UTC)  01-Dec-2021 03:06:52
Local (UTC-8)  30-Nov-2021 19:06:52
 
METAR
KSAC 
17nm N 
010258Z 00000KT 6SM BR CLR 11/11 A3010 RMK AO2 T01110106
KSUU 
18nm W 
010258Z AUTO 00000KT 10SM CLR 09/05 A3010 RMK AO2 SLP200 T00870054 53002 $
KVCB 
22nm NW 
010253Z AUTO 00000KT 10SM CLR 09/08 A3011 RMK AO2 SLP196 T00890078 $
KEDU 
22nm NW 
010255Z AUTO 00000KT 5SM CLR 10/10 A3011 RMK AO1
KMHR 
22nm NE 
010255Z AUTO 00000KT 6SM BR CLR 12/11 A3009 RMK A01
KC83 
24nm S 
010255Z AUTO 24003KT 10SM CLR 10/06 A3010 RMK AO2
KSCK 
25nm SE 
010255Z 00000KT 5SM HZ CLR 13/11 A3009 RMK AO2 SLP189 T01330106 53004
KDWA 
27nm NW 
010255Z AUTO 00000KT 7SM CLR 10/10 A3011 RMK AO2
KCCR 
28nm SW 
010253Z 00000KT 10SM CLR 13/09 A3009 RMK AO2 SLP177 T01280094 53002
KMCC 
28nm N 
010255Z AUTO 07003KT 5SM BR CLR 12/11 A3010 RMK AO2
TAF
KSAC 
17nm N 
301720Z 3018/0118 34007KT P6SM SCT250 FM010600 VRB03KT 5SM BR SKC AMD NOT SKED
KSUU 
18nm W 
301900Z 3019/0201 VRB06KT 9999 FEW250 QNH3004INS BECMG 0108/0109 01009KT 3200 BR SCT100 QNH3009INS TEMPO 0110/0116 01012G18KT 0800 FG VV002 BECMG 0117/0118 VRB06KT 4800 BR FEW100 QNH3003INS TX20/3023Z TN04/0114Z
NOTAMs
Click for the latest NOTAMs
NOTAMs are issued by the DoD/FAA and will open in a separate window not controlled by AirNav.

 

 
 

Would you like to see your business listed on this page?

 If your business provides an interesting product or service to pilots, flight crews, aircraft, or users of the Spezia Airport, you should consider listing it here.  To start the listing process, click on the button below
 
Add a business
 

Other Pages about Spezia Airport

Update a link
 
Copyright © AirNav, LLC. All rights reserved. Privacy Policy  Contact